Time;durP1;ratioP1;P1;durP2;ratioP2;P2;SDS_P1;SDS_P2;PMS_P1;PMS_P2;Temp;Humidity;BMP_temperature;BMP_pressure;BME280_temperature;BME280_humidity;BME280_pressure;Samples;Min_cycle;Max_cycle;Signal;HPM_P1;HPM_P2
2021/07/09 00:02:18;;;;;;;58.07;2.60;;;15.80;85.90;;;;;;5070630;28;20512;-72
2021/07/09 00:04:45;;;;;;;58.50;2.80;;;15.70;85.30;;;;;;5071390;28;20996;-73
2021/07/09 00:07:12;;;;;;;58.37;2.80;;;15.70;85.10;;;;;;5071694;28;20484;-72
2021/07/09 00:09:39;;;;;;;58.37;2.53;;;15.70;85.10;;;;;;5071792;28;20447;-73
2021/07/09 00:12:06;;;;;;;57.93;2.70;;;15.60;85.40;;;;;;5071317;28;20539;-72
2021/07/09 00:14:37;;;;;;;58.20;2.70;;;15.60;86.80;;;;;;5071558;28;20472;-72
2021/07/09 00:17:04;;;;;;;58.40;2.60;;;15.60;87.10;;;;;;5071385;28;20455;-72
2021/07/09 00:19:31;;;;;;;58.27;2.80;;;15.60;87.30;;;;;;5071636;28;20547;-73
2021/07/09 00:21:59;;;;;;;57.73;2.70;;;15.60;88.10;;;;;;5071346;28;21007;-72
2021/07/09 00:24:27;;;;;;;58.60;2.80;;;15.60;87.60;;;;;;5071580;28;20477;-72
2021/07/09 00:26:54;;;;;;;58.17;2.70;;;15.60;87.50;;;;;;5071448;28;20486;-72
2021/07/09 00:29:21;;;;;;;58.27;2.73;;;15.60;87.00;;;;;;5071318;28;20453;-72
2021/07/09 00:31:49;;;;;;;58.13;2.63;;;15.60;87.80;;;;;;5071022;28;20491;-72
2021/07/09 00:34:17;;;;;;;58.27;3.00;;;15.60;87.50;;;;;;5071459;28;20464;-73
2021/07/09 00:36:44;;;;;;;58.37;2.70;;;15.60;87.10;;;;;;5071534;28;20480;-72
2021/07/09 00:39:11;;;;;;;58.27;2.60;;;15.60;87.30;;;;;;5071410;28;20539;-70
2021/07/09 00:41:38;;;;;;;58.40;3.00;;;15.60;87.40;;;;;;5071133;28;20883;-73
2021/07/09 00:44:06;;;;;;;58.23;2.93;;;15.60;87.60;;;;;;5071092;28;20552;-72
2021/07/09 00:46:34;;;;;;;58.60;3.00;;;15.60;87.40;;;;;;5071463;28;20448;-72
2021/07/09 00:49:04;;;;;;;58.17;2.50;;;15.60;88.10;;;;;;5071399;28;20574;-72
2021/07/09 00:51:30;;;;;;;58.40;2.70;;;15.60;88.70;;;;;;5071039;28;20458;-71
2021/07/09 00:53:58;;;;;;;58.20;2.70;;;15.60;89.30;;;;;;5071069;28;20979;-72
2021/07/09 00:56:25;;;;;;;58.37;2.67;;;15.60;89.60;;;;;;5071167;28;20544;-72
2021/07/09 00:58:54;;;;;;;57.97;2.60;;;15.70;89.70;;;;;;5071353;28;20540;-73
2021/07/09 01:01:21;;;;;;;57.97;2.80;;;15.70;89.60;;;;;;5071274;28;20538;-73
2021/07/09 01:03:48;;;;;;;58.10;2.50;;;15.70;90.10;;;;;;5069824;28;20487;-73
2021/07/09 01:06:17;;;;;;;58.07;2.50;;;15.70;90.30;;;;;;5057957;28;20544;-72
2021/07/09 01:08:44;;;;;;;58.37;2.77;;;15.70;90.30;;;;;;5051081;28;20505;-73
2021/07/09 01:11:12;;;;;;;57.97;2.63;;;15.70;90.80;;;;;;5051674;28;20536;-73
2021/07/09 01:13:41;;;;;;;58.07;2.63;;;15.70;90.90;;;;;;5054477;28;20509;-72
2021/07/09 01:16:08;;;;;;;57.80;2.50;;;15.80;91.00;;;;;;5054801;28;20537;-72
2021/07/09 01:18:35;;;;;;;58.10;2.50;;;15.70;90.80;;;;;;5054573;28;20895;-73
2021/07/09 01:21:07;;;;;;;58.07;2.70;;;15.70;91.00;;;;;;5054362;28;20537;-73
2021/07/09 01:23:36;;;;;;;57.93;2.60;;;15.70;91.20;;;;;;5054032;28;20477;-73
2021/07/09 01:26:06;;;;;;;58.37;2.60;;;15.70;91.20;;;;;;5054657;28;20891;-72
2021/07/09 01:28:33;;;;;;;58.47;2.70;;;15.70;91.20;;;;;;5054540;28;21082;-73
2021/07/09 01:31:01;;;;;;;58.13;2.50;;;15.70;91.30;;;;;;5054771;28;20553;-72
2021/07/09 01:33:28;;;;;;;57.77;2.60;;;15.70;91.40;;;;;;5053916;28;20576;-73
2021/07/09 01:35:56;;;;;;;57.97;2.60;;;15.70;91.10;;;;;;5052952;28;20454;-72
2021/07/09 01:38:22;;;;;;;58.37;2.70;;;15.70;90.90;;;;;;5053905;28;20457;-72
2021/07/09 01:40:49;;;;;;;58.07;2.60;;;15.70;90.60;;;;;;5054199;28;20488;-73
2021/07/09 01:43:18;;;;;;;58.30;2.60;;;15.70;90.80;;;;;;5053789;28;20694;-72
2021/07/09 01:45:44;;;;;;;58.13;2.70;;;15.60;90.70;;;;;;5054150;28;20538;-72
2021/07/09 01:48:11;;;;;;;57.97;2.60;;;15.60;90.70;;;;;;5053942;28;20481;-72
2021/07/09 01:50:38;;;;;;;58.30;2.60;;;15.60;90.70;;;;;;5053813;28;20543;-72
2021/07/09 01:53:05;;;;;;;58.13;2.50;;;15.60;91.00;;;;;;5053808;28;20820;-72
2021/07/09 01:55:32;;;;;;;58.20;2.60;;;15.60;90.90;;;;;;5053878;28;20446;-73
2021/07/09 01:57:59;;;;;;;58.23;2.60;;;15.60;91.10;;;;;;5053750;28;20972;-73
2021/07/09 02:00:28;;;;;;;58.37;2.60;;;15.50;91.00;;;;;;5053923;28;20449;-72
2021/07/09 02:02:55;;;;;;;58.20;2.73;;;15.50;91.00;;;;;;5053433;28;20446;-72
2021/07/09 02:05:24;;;;;;;58.03;2.60;;;15.50;91.00;;;;;;5053415;28;20451;-72
2021/07/09 02:07:54;;;;;;;58.27;2.67;;;15.50;91.30;;;;;;5053782;28;20488;-72
2021/07/09 02:10:22;;;;;;;58.17;2.63;;;15.50;91.60;;;;;;5053765;28;20455;-71
2021/07/09 02:12:50;;;;;;;58.37;2.80;;;15.50;92.10;;;;;;5053390;28;20451;-72
2021/07/09 02:15:18;;;;;;;58.50;2.70;;;15.50;92.30;;;;;;5053481;28;20539;-72
2021/07/09 02:17:47;;;;;;;58.20;2.50;;;15.50;92.70;;;;;;5053386;28;20525;-72
2021/07/09 02:20:17;;;;;;;58.27;2.50;;;15.50;92.80;;;;;;5053684;28;20453;-72
2021/07/09 02:22:44;;;;;;;57.70;2.70;;;15.50;93.00;;;;;;5053075;28;20538;-73
2021/07/09 02:25:12;;;;;;;58.33;2.80;;;15.50;93.30;;;;;;5053280;28;21005;-71
2021/07/09 02:27:40;;;;;;;58.17;2.60;;;15.50;93.20;;;;;;5053182;28;20573;-72
2021/07/09 02:30:10;;;;;;;58.20;2.80;;;15.50;93.30;;;;;;5053312;28;20445;-72
2021/07/09 02:32:38;;;;;;;57.97;2.80;;;15.50;93.50;;;;;;5053048;28;20511;-72
2021/07/09 02:35:08;;;;;;;58.30;2.40;;;15.50;93.50;;;;;;5053225;28;20555;-72
2021/07/09 02:37:35;;;;;;;58.37;2.73;;;15.50;93.70;;;;;;5053320;28;20481;-72
2021/07/09 02:40:03;;;;;;;58.13;2.60;;;15.50;93.80;;;;;;5053083;28;20453;-72
2021/07/09 02:42:30;;;;;;;58.07;2.50;;;15.50;93.70;;;;;;5052687;28;20949;-72
2021/07/09 02:44:57;;;;;;;58.17;2.50;;;15.50;93.70;;;;;;5052895;28;20468;-72
2021/07/09 02:47:24;;;;;;;58.37;2.97;;;15.50;93.80;;;;;;5052868;28;20449;-72
2021/07/09 02:49:51;;;;;;;58.13;2.70;;;15.50;94.00;;;;;;5052995;28;20533;-72
2021/07/09 02:52:19;;;;;;;58.07;2.57;;;15.50;93.90;;;;;;5052682;28;20843;-73
2021/07/09 02:54:46;;;;;;;58.13;2.53;;;15.50;93.80;;;;;;5052826;28;20465;-72
2021/07/09 02:57:13;;;;;;;58.27;2.80;;;15.50;94.30;;;;;;5052697;28;20459;-72
2021/07/09 02:59:40;;;;;;;58.80;2.60;;;15.50;94.60;;;;;;5052629;28;20968;-72
2021/07/09 03:02:07;;;;;;;58.00;2.60;;;15.40;94.30;;;;;;5052729;28;20450;-72
2021/07/09 03:04:33;;;;;;;59.87;3.50;;;15.40;94.90;;;;;;5052440;28;20512;-73
2021/07/09 03:07:00;;;;;;;58.43;2.50;;;15.40;95.30;;;;;;5053030;28;20481;-73
2021/07/09 03:09:29;;;;;;;58.20;2.60;;;15.40;95.20;;;;;;5052427;28;20481;-72
2021/07/09 03:11:55;;;;;;;58.33;2.63;;;15.40;95.00;;;;;;5052045;28;20489;-72
2021/07/09 03:14:22;;;;;;;58.17;2.70;;;15.40;95.30;;;;;;5052319;28;21070;-72
2021/07/09 03:16:49;;;;;;;57.97;2.70;;;15.40;95.50;;;;;;5052819;28;20889;-72
2021/07/09 03:19:17;;;;;;;58.27;2.70;;;15.40;95.40;;;;;;5052360;28;20486;-72
2021/07/09 03:21:44;;;;;;;58.17;2.60;;;15.40;95.70;;;;;;5052084;28;20453;-72
2021/07/09 03:24:11;;;;;;;58.13;2.57;;;15.40;96.10;;;;;;5052114;28;21028;-71
2021/07/09 03:26:39;;;;;;;58.23;2.40;;;15.40;96.40;;;;;;5052125;28;20538;-72
2021/07/09 03:29:06;;;;;;;58.10;2.40;;;15.40;96.30;;;;;;5052385;28;20517;-72
2021/07/09 03:31:33;;;;;;;58.07;2.80;;;15.40;96.50;;;;;;5052129;28;20497;-71
2021/07/09 03:34:00;;;;;;;58.03;2.50;;;15.40;96.10;;;;;;5051706;28;20498;-71
2021/07/09 03:36:28;;;;;;;58.10;2.60;;;15.40;95.70;;;;;;5052125;28;20827;-71
2021/07/09 03:38:56;;;;;;;58.07;2.40;;;15.30;95.60;;;;;;5051831;28;20533;-71
2021/07/09 03:41:24;;;;;;;58.07;2.40;;;15.30;95.40;;;;;;5051971;28;20541;-72
2021/07/09 03:43:53;;;;;;;59.33;3.43;;;15.30;95.30;;;;;;5052146;28;20471;-71
2021/07/09 03:46:19;;;;;;;58.10;2.50;;;15.30;95.20;;;;;;5051879;28;20450;-71
2021/07/09 03:48:46;;;;;;;57.87;2.50;;;15.30;95.20;;;;;;5051964;28;20568;-71
2021/07/09 03:51:13;;;;;;;58.27;2.60;;;15.30;95.20;;;;;;5051777;28;20549;-71
2021/07/09 03:53:40;;;;;;;57.87;2.50;;;15.30;95.50;;;;;;5051477;28;20488;-71
2021/07/09 03:56:07;;;;;;;58.27;2.50;;;15.30;95.40;;;;;;5051964;28;20482;-73
2021/07/09 03:58:34;;;;;;;58.27;2.80;;;15.30;95.30;;;;;;5051952;28;20482;-72
2021/07/09 04:01:04;;;;;;;58.20;2.50;;;15.30;95.30;;;;;;5051693;28;20483;-73
2021/07/09 04:03:31;;;;;;;58.20;2.63;;;15.30;95.20;;;;;;5051431;28;20567;-72
2021/07/09 04:05:57;;;;;;;58.70;2.53;;;15.30;95.40;;;;;;5051686;28;20915;-72
2021/07/09 04:08:24;;;;;;;58.07;2.63;;;15.30;95.30;;;;;;5051533;28;20580;-71
2021/07/09 04:10:51;;;;;;;58.27;2.57;;;15.20;95.40;;;;;;5051571;28;20480;-72
2021/07/09 04:13:18;;;;;;;58.67;2.87;;;15.20;95.40;;;;;;5051381;28;20556;-71
2021/07/09 04:15:45;;;;;;;58.30;2.77;;;15.20;95.40;;;;;;5051705;28;20493;-73
2021/07/09 04:18:13;;;;;;;58.27;2.70;;;15.20;95.20;;;;;;5051448;28;20474;-72
2021/07/09 04:20:40;;;;;;;58.50;3.07;;;15.20;95.10;;;;;;5051504;28;20706;-72
2021/07/09 04:23:07;;;;;;;58.03;2.90;;;15.20;95.20;;;;;;5051449;28;20455;-72
2021/07/09 04:25:34;;;;;;;58.27;2.80;;;15.20;95.30;;;;;;5051670;28;20472;-72
2021/07/09 04:28:01;;;;;;;57.87;2.90;;;15.20;95.10;;;;;;5051565;28;20481;-71
2021/07/09 04:30:28;;;;;;;58.27;2.60;;;15.20;95.10;;;;;;5051586;28;20453;-72
2021/07/09 04:32:54;;;;;;;57.97;2.50;;;15.20;95.30;;;;;;5051132;28;20542;-72
2021/07/09 04:35:23;;;;;;;58.27;2.50;;;15.20;95.80;;;;;;5051277;28;20890;-70
2021/07/09 04:37:50;;;;;;;58.40;2.90;;;15.20;95.30;;;;;;5051762;28;20461;-71
2021/07/09 04:40:18;;;;;;;58.13;2.60;;;15.20;95.00;;;;;;5051544;28;20533;-71
2021/07/09 04:42:45;;;;;;;58.33;2.63;;;15.20;95.20;;;;;;5051327;28;20442;-71
2021/07/09 04:45:13;;;;;;;58.17;2.93;;;15.20;94.70;;;;;;5051327;28;20995;-72
2021/07/09 04:47:39;;;;;;;58.17;2.60;;;15.20;94.70;;;;;;5054604;28;20456;-71
2021/07/09 04:50:07;;;;;;;58.20;3.00;;;15.10;94.80;;;;;;5054945;28;21073;-71
2021/07/09 04:52:36;;;;;;;58.13;2.50;;;15.10;94.80;;;;;;5054910;28;20459;-71
2021/07/09 04:55:03;;;;;;;58.23;2.90;;;15.10;95.00;;;;;;5055032;28;20474;-71
2021/07/09 04:57:31;;;;;;;58.07;2.70;;;15.10;95.20;;;;;;5055058;28;20549;-71
2021/07/09 04:59:58;;;;;;;58.03;2.67;;;15.10;95.60;;;;;;5055163;28;20445;-71
2021/07/09 05:02:25;;;;;;;58.37;2.70;;;15.10;95.90;;;;;;5054730;28;20468;-71
2021/07/09 05:04:52;;;;;;;57.97;2.53;;;15.10;95.90;;;;;;5054826;28;20484;-71
2021/07/09 05:07:19;;;;;;;58.60;3.07;;;15.00;96.00;;;;;;5054897;28;20986;-71
2021/07/09 05:09:47;;;;;;;58.30;2.80;;;15.00;96.10;;;;;;5054635;28;21084;-71
2021/07/09 05:12:14;;;;;;;58.33;2.80;;;15.00;96.40;;;;;;5054591;28;20579;-71
2021/07/09 05:14:41;;;;;;;58.03;2.60;;;15.00;96.60;;;;;;5054623;28;20560;-70
2021/07/09 05:17:08;;;;;;;58.37;2.97;;;15.00;96.60;;;;;;5054679;28;21045;-71
2021/07/09 05:19:35;;;;;;;58.27;3.03;;;15.00;97.00;;;;;;5054854;28;20485;-71
2021/07/09 05:22:02;;;;;;;58.27;2.80;;;15.00;97.30;;;;;;5054464;28;20482;-73
2021/07/09 05:24:29;;;;;;;58.20;2.77;;;15.00;97.10;;;;;;5054325;28;20480;-71
2021/07/09 05:26:57;;;;;;;58.10;2.67;;;15.00;96.80;;;;;;5054467;28;20541;-71
2021/07/09 05:29:24;;;;;;;58.07;2.50;;;15.00;96.60;;;;;;5054657;28;20920;-71
2021/07/09 05:31:51;;;;;;;58.13;2.50;;;15.00;97.00;;;;;;5054278;28;20488;-71
2021/07/09 05:34:18;;;;;;;58.20;2.70;;;15.00;97.10;;;;;;5054524;28;20475;-71
2021/07/09 05:36:45;;;;;;;58.23;2.50;;;15.00;97.30;;;;;;5054511;28;20493;-71
2021/07/09 05:39:15;;;;;;;57.97;2.40;;;15.00;97.80;;;;;;5054458;28;20452;-71
2021/07/09 05:41:42;;;;;;;58.07;2.60;;;15.10;97.90;;;;;;5054491;28;20458;-71
2021/07/09 05:44:10;;;;;;;58.07;2.70;;;15.10;98.00;;;;;;5054011;28;20570;-71
2021/07/09 05:46:37;;;;;;;58.30;2.60;;;15.10;97.70;;;;;;5054255;28;20460;-71
2021/07/09 05:49:04;;;;;;;58.00;2.43;;;15.20;97.20;;;;;;5054041;28;21001;-71
2021/07/09 05:51:31;;;;;;;58.30;2.87;;;15.20;97.00;;;;;;5054018;28;20489;-71
2021/07/09 05:53:58;;;;;;;58.00;2.57;;;15.10;96.80;;;;;;5053964;28;20839;-71
2021/07/09 05:56:25;;;;;;;58.17;2.60;;;15.10;96.80;;;;;;5053748;28;20544;-71
2021/07/09 05:58:52;;;;;;;58.27;2.57;;;15.10;96.60;;;;;;5053800;28;20488;-71
2021/07/09 06:01:20;;;;;;;57.97;2.50;;;15.10;96.30;;;;;;5053702;28;20534;-71
2021/07/09 06:03:47;;;;;;;58.17;2.60;;;15.10;96.20;;;;;;5053387;28;20487;-71
2021/07/09 06:06:13;;;;;;;58.17;2.60;;;15.10;96.30;;;;;;5053678;28;20537;-71
2021/07/09 06:08:40;;;;;;;58.10;2.70;;;15.10;96.70;;;;;;5053663;28;20476;-71
2021/07/09 06:11:08;;;;;;;58.30;2.60;;;15.10;96.60;;;;;;5053531;28;20548;-71
2021/07/09 06:13:35;;;;;;;58.03;2.50;;;15.10;96.80;;;;;;5053737;28;20481;-71
2021/07/09 06:16:01;;;;;;;58.17;2.53;;;15.10;96.50;;;;;;5053739;28;20464;-71
2021/07/09 06:18:30;;;;;;;58.37;2.90;;;15.10;96.80;;;;;;5052385;28;20982;-71
2021/07/09 06:20:56;;;;;;;58.03;2.40;;;15.10;97.10;;;;;;5053387;28;20456;-71
2021/07/09 06:23:24;;;;;;;58.07;2.60;;;15.20;96.50;;;;;;5053239;28;20909;-71
2021/07/09 06:25:51;;;;;;;58.13;2.40;;;15.20;96.50;;;;;;5053304;28;20451;-71
2021/07/09 06:28:18;;;;;;;58.60;2.90;;;15.20;96.60;;;;;;5053517;28;20485;-71
2021/07/09 06:30:44;;;;;;;58.50;2.93;;;15.20;96.60;;;;;;5053220;28;20573;-70
2021/07/09 06:33:12;;;;;;;58.27;3.33;;;15.30;96.40;;;;;;5053197;28;21073;-70
2021/07/09 06:35:41;;;;;;;58.07;2.50;;;15.30;96.70;;;;;;5053074;28;20451;-72
2021/07/09 06:38:08;;;;;;;57.87;2.50;;;15.40;97.20;;;;;;5057899;28;20536;-72
2021/07/09 06:40:35;;;;;;;58.17;2.63;;;15.40;97.60;;;;;;5064033;28;20493;-72
2021/07/09 06:43:02;;;;;;;58.20;2.90;;;15.40;97.20;;;;;;5052523;28;20541;-72
2021/07/09 06:45:29;;;;;;;58.10;2.50;;;15.40;96.90;;;;;;5052848;28;21010;-72
2021/07/09 06:47:56;;;;;;;58.07;2.60;;;15.40;96.90;;;;;;5052981;28;20485;-72
2021/07/09 06:50:23;;;;;;;58.40;2.70;;;15.40;96.70;;;;;;5052853;28;20477;-72
2021/07/09 06:52:51;;;;;;;57.97;2.63;;;15.30;97.00;;;;;;5052348;28;20542;-72
2021/07/09 06:55:18;;;;;;;58.57;2.80;;;15.40;97.00;;;;;;5052692;28;20562;-71
2021/07/09 06:57:48;;;;;;;58.00;3.07;;;15.40;97.10;;;;;;5052910;28;20446;-72
2021/07/09 07:00:17;;;;;;;58.30;2.50;;;15.40;96.90;;;;;;5052687;28;20968;-72
2021/07/09 07:02:44;;;;;;;58.03;2.53;;;15.40;96.50;;;;;;5052370;28;20456;-72
2021/07/09 07:05:12;;;;;;;58.17;2.83;;;15.40;96.20;;;;;;5052331;28;20985;-72
2021/07/09 07:07:38;;;;;;;58.17;2.43;;;15.40;96.30;;;;;;5052340;28;20454;-72
2021/07/09 07:10:09;;;;;;;58.10;2.60;;;15.50;96.40;;;;;;5065342;28;20496;-72
2021/07/09 07:12:36;;;;;;;58.07;2.73;;;15.50;96.60;;;;;;5072087;28;20480;-72
2021/07/09 07:15:04;;;;;;;57.67;2.50;;;15.60;97.20;;;;;;5072319;28;20465;-72
2021/07/09 07:17:31;;;;;;;58.17;2.90;;;15.60;96.90;;;;;;5072312;28;20467;-72
2021/07/09 07:19:58;;;;;;;58.30;2.90;;;15.70;96.90;;;;;;5072098;28;20497;-72
2021/07/09 07:22:25;;;;;;;58.27;2.70;;;15.70;96.40;;;;;;5072149;28;20531;-72
2021/07/09 07:24:52;;;;;;;60.07;2.90;;;15.80;96.10;;;;;;5072256;28;20471;-72
2021/07/09 07:27:23;;;;;;;57.93;2.70;;;15.80;95.70;;;;;;5072263;28;20488;-72
2021/07/09 07:29:50;;;;;;;57.93;2.50;;;15.80;95.70;;;;;;5072090;28;20568;-73
2021/07/09 07:32:17;;;;;;;58.27;2.87;;;15.90;95.60;;;;;;5071670;28;20533;-72
2021/07/09 07:34:44;;;;;;;58.40;3.00;;;15.90;95.20;;;;;;5072187;28;20478;-72
2021/07/09 07:37:11;;;;;;;57.83;2.63;;;16.00;95.40;;;;;;5072350;28;20545;-72
2021/07/09 07:39:37;;;;;;;58.40;3.17;;;16.10;95.70;;;;;;5070738;28;20743;-72
2021/07/09 07:42:05;;;;;;;57.77;2.63;;;16.20;96.10;;;;;;5071536;28;20482;-72
2021/07/09 07:44:33;;;;;;;57.83;2.50;;;16.30;96.30;;;;;;5071757;28;20533;-72
2021/07/09 07:47:00;;;;;;;58.23;2.97;;;16.40;95.50;;;;;;5071652;28;20821;-70
2021/07/09 07:49:27;;;;;;;57.87;2.67;;;16.50;95.40;;;;;;5071982;28;20486;-70
2021/07/09 07:51:55;;;;;;;58.00;2.40;;;16.60;95.70;;;;;;5071489;28;20450;-71
2021/07/09 07:54:21;;;;;;;58.10;2.60;;;16.60;95.80;;;;;;5071722;28;20466;-71
2021/07/09 07:56:48;;;;;;;58.50;2.97;;;16.60;95.10;;;;;;5071869;28;20537;-71
2021/07/09 07:59:15;;;;;;;58.30;2.80;;;16.70;94.80;;;;;;5071736;28;20533;-71
2021/07/09 08:01:43;;;;;;;57.77;2.40;;;16.70;94.80;;;;;;5071354;28;20546;-71
2021/07/09 08:04:10;;;;;;;57.90;2.77;;;16.80;94.90;;;;;;5071577;28;20565;-71
2021/07/09 08:06:37;;;;;;;57.87;2.43;;;16.90;95.80;;;;;;5071703;28;20458;-71
2021/07/09 08:09:04;;;;;;;58.10;2.97;;;17.00;95.70;;;;;;5072007;28;20456;-71
2021/07/09 08:11:31;;;;;;;58.30;3.00;;;17.00;93.30;;;;;;5070376;28;20458;-71
2021/07/09 08:13:58;;;;;;;58.50;2.87;;;17.00;91.00;;;;;;5071345;28;20467;-71
2021/07/09 08:16:25;;;;;;;57.83;2.73;;;16.90;90.50;;;;;;5071900;28;20493;-71
2021/07/09 08:18:53;;;;;;;57.90;2.77;;;16.80;90.50;;;;;;5071791;28;20524;-71
2021/07/09 08:21:20;;;;;;;58.17;2.53;;;16.90;91.10;;;;;;5074874;28;20537;-71
2021/07/09 08:23:47;;;;;;;58.80;3.93;;;16.90;91.90;;;;;;5075778;28;20562;-73
2021/07/09 08:26:14;;;;;;;57.97;2.67;;;17.00;93.20;;;;;;5075718;28;20538;-71
2021/07/09 08:28:41;;;;;;;57.97;2.47;;;17.10;92.20;;;;;;5075459;28;20556;-71
2021/07/09 08:31:07;;;;;;;58.17;2.67;;;17.10;91.70;;;;;;5075519;28;20482;-71
2021/07/09 08:33:34;;;;;;;57.77;2.57;;;17.10;90.90;;;;;;5075369;28;20469;-71
2021/07/09 08:36:03;;;;;;;58.17;2.90;;;17.20;90.80;;;;;;5075719;28;20452;-71
2021/07/09 08:38:30;;;;;;;57.93;2.60;;;17.30;91.60;;;;;;5075440;28;20454;-71
2021/07/09 08:40:57;;;;;;;57.97;2.53;;;17.50;91.80;;;;;;5075191;28;20942;-71
2021/07/09 08:43:24;;;;;;;58.17;2.77;;;17.70;91.70;;;;;;5062865;28;20486;-71
2021/07/09 08:45:51;;;;;;;57.83;2.47;;;17.80;91.50;;;;;;5068935;28;20501;-71
2021/07/09 08:48:20;;;;;;;58.70;3.30;;;18.00;91.40;;;;;;5075158;28;21014;-71
2021/07/09 08:50:47;;;;;;;58.10;2.70;;;18.20;90.20;;;;;;5075164;28;20944;-71
2021/07/09 08:53:15;;;;;;;58.10;2.70;;;18.40;90.40;;;;;;5074693;28;20936;-71
2021/07/09 08:55:42;;;;;;;58.40;3.00;;;18.60;88.80;;;;;;5074953;28;20442;-71
2021/07/09 08:58:09;;;;;;;58.30;2.93;;;18.90;81.70;;;;;;5075306;28;20538;-71
2021/07/09 09:00:41;;;;;;;57.77;2.47;;;19.00;62.10;;;;;;5075167;28;20536;-70
2021/07/09 09:03:16;;;;;;;58.67;2.93;;;19.00;4.20;;;;;;5074500;28;20459;-70
2021/07/09 09:05:43;;;;;;;57.90;2.70;;;19.10;1.00;;;;;;5074989;28;20784;-71
2021/07/09 09:08:11;;;;;;;57.53;2.37;;;19.10;1.00;;;;;;5074698;28;20965;-70
2021/07/09 09:10:41;;;;;;;58.10;2.93;;;19.10;1.00;;;;;;5074745;28;21070;-70
2021/07/09 09:13:09;;;;;;;58.00;2.40;;;19.20;1.00;;;;;;5074394;28;20885;-71
2021/07/09 09:15:37;;;;;;;58.30;2.80;;;19.30;1.00;;;;;;5073425;28;20510;-70
2021/07/09 09:18:19;;;;;;;58.03;2.70;;;19.50;1.00;;;;;;5057299;28;20530;-70
2021/07/09 09:20:46;;;;;;;57.93;2.40;;;19.60;1.00;;;;;;5054487;28;21070;-70
2021/07/09 09:23:13;;;;;;;60.30;3.20;;;19.60;1.00;;;;;;5054474;28;20449;-70
2021/07/09 09:25:41;;;;;;;57.77;2.37;;;19.80;1.00;;;;;;5054624;28;20452;-70
2021/07/09 09:28:11;;;;;;;57.97;2.70;;;20.00;1.00;;;;;;5054497;28;20537;-70
2021/07/09 09:30:40;;;;;;;58.20;2.73;;;20.30;1.00;;;;;;5054526;28;20589;-70
2021/07/09 09:33:09;;;;;;;57.87;2.77;;;20.50;1.00;;;;;;5053189;28;20530;-69
2021/07/09 09:35:38;;;;;;;57.97;2.40;;;20.50;1.00;;;;;;5054291;28;20538;-69
2021/07/09 09:38:07;;;;;;;58.30;2.90;;;20.50;1.00;;;;;;5054387;28;20450;-69
2021/07/09 09:40:35;;;;;;;58.07;2.53;;;20.60;1.00;;;;;;5054305;28;20446;-69
2021/07/09 09:43:08;;;;;;;58.07;2.87;;;20.70;1.00;;;;;;5053875;28;20533;-68
2021/07/09 09:45:36;;;;;;;58.10;2.40;;;20.70;1.00;;;;;;5055321;28;20455;-69
2021/07/09 09:48:07;;;;;;;58.20;2.90;;;20.70;1.00;;;;;;5069325;28;20545;-69
2021/07/09 09:50:45;;;;;;;57.83;2.30;;;20.70;1.00;;;;;;5054087;28;20570;-69
2021/07/09 09:53:12;;;;;;;57.90;2.40;;;20.80;1.00;;;;;;5053770;28;20539;-68
2021/07/09 09:55:40;;;;;;;58.07;2.30;;;21.10;1.00;;;;;;5054015;28;20445;-69
2021/07/09 09:58:14;;;;;;;57.60;2.73;;;21.20;1.00;;;;;;5053737;28;20536;-69
2021/07/09 10:00:44;;;;;;;57.67;2.60;;;21.30;1.00;;;;;;5053909;28;20476;-68
2021/07/09 10:03:11;;;;;;;57.93;2.70;;;21.50;1.00;;;;;;5053538;28;20898;-69
2021/07/09 10:05:40;;;;;;;57.63;2.30;;;21.50;1.00;;;;;;5053885;28;20527;-70
2021/07/09 10:08:11;;;;;;;57.77;2.20;;;21.60;1.00;;;;;;5053895;28;20454;-70
2021/07/09 10:10:39;;;;;;;58.50;2.97;;;21.60;1.00;;;;;;5053540;28;20487;-69
2021/07/09 10:13:09;;;;;;;57.33;2.30;;;21.60;1.00;;;;;;5053587;28;20444;-70
2021/07/09 10:15:36;;;;;;;57.80;2.40;;;21.70;1.00;;;;;;5054006;28;20545;-70
2021/07/09 10:18:03;;;;;;;58.10;2.60;;;21.60;1.00;;;;;;5061942;28;20538;-70
2021/07/09 10:20:30;;;;;;;57.97;2.57;;;21.60;1.00;;;;;;5073316;28;20444;-69
2021/07/09 10:23:00;;;;;;;57.90;2.63;;;21.50;1.00;;;;;;5073269;28;20446;-70
2021/07/09 10:25:29;;;;;;;58.80;3.27;;;21.50;1.00;;;;;;5073755;28;20782;-70
2021/07/09 10:27:56;;;;;;;58.00;2.47;;;21.50;1.00;;;;;;5073775;28;20866;-68
2021/07/09 10:30:36;;;;;;;58.10;2.50;;;21.40;1.00;;;;;;5073435;28;20485;-72
2021/07/09 10:33:23;;;;;;;58.87;2.87;;;21.40;1.00;;;;;;5073043;28;20526;-69
2021/07/09 10:35:51;;;;;;;57.73;2.50;;;21.50;1.00;;;;;;5073106;28;20462;-70
2021/07/09 10:38:19;;;;;;;57.77;2.90;;;21.90;1.00;;;;;;5073429;28;20535;-70
2021/07/09 10:40:47;;;;;;;57.93;2.60;;;22.30;1.00;;;;;;5072818;28;20498;-69
2021/07/09 10:43:15;;;;;;;57.87;2.50;;;22.50;1.00;;;;;;5071916;28;20462;-70
2021/07/09 10:45:43;;;;;;;58.20;2.40;;;22.50;1.00;;;;;;5072778;28;20436;-70
2021/07/09 10:48:11;;;;;;;57.93;2.63;;;22.40;1.00;;;;;;5072851;28;20454;-71
2021/07/09 10:50:41;;;;;;;58.30;3.00;;;22.40;1.00;;;;;;5073170;28;20490;-71
2021/07/09 10:53:23;;;;;;;57.80;2.27;;;22.50;1.00;;;;;;5072838;28;20815;-70
2021/07/09 10:55:53;;;;;;;57.83;2.23;;;22.30;1.00;;;;;;5072969;28;20873;-70
2021/07/09 10:58:28;;;;;;;57.10;2.23;;;22.30;1.00;;;;;;5072902;28;20450;-70
2021/07/09 11:00:56;;;;;;;58.07;2.30;;;22.50;1.00;;;;;;5072838;28;20996;-70
2021/07/09 11:03:37;;;;;;;57.77;2.43;;;22.50;1.00;;;;;;5072827;28;21042;-70
2021/07/09 11:06:06;;;;;;;58.17;2.80;;;22.60;1.00;;;;;;5072869;28;20458;-69
2021/07/09 11:08:50;;;;;;;58.10;2.77;;;22.60;1.00;;;;;;5072691;28;20530;-69
2021/07/09 11:11:18;;;;;;;58.53;3.07;;;22.50;1.00;;;;;;5072288;28;20487;-69
2021/07/09 11:13:50;;;;;;;58.00;2.60;;;22.50;1.00;;;;;;5072565;28;20563;-70
2021/07/09 11:16:30;;;;;;;57.93;2.37;;;22.60;1.00;;;;;;5072386;28;20455;-70
2021/07/09 11:19:03;;;;;;;57.90;2.30;;;22.60;1.00;;;;;;5072528;28;20509;-70
2021/07/09 11:21:52;;;;;;;58.10;2.60;;;22.60;1.00;;;;;;5072563;28;20444;-70
2021/07/09 11:24:22;;;;;;;57.80;2.30;;;22.80;1.00;;;;;;5072512;28;20466;-70
2021/07/09 11:26:50;;;;;;;58.00;2.47;;;23.50;1.00;;;;;;5072803;28;20578;-70
2021/07/09 11:29:25;;;;;;;57.93;2.30;;;24.30;1.00;;;;;;5072325;28;20453;-70
2021/07/09 11:31:53;;;;;;;58.20;2.80;;;25.40;1.00;;;;;;5071734;28;21021;-68
2021/07/09 11:34:22;;;;;;;57.97;2.60;;;25.80;1.00;;;;;;5072289;28;20463;-68
2021/07/09 11:36:51;;;;;;;57.90;2.50;;;26.50;1.00;;;;;;5072312;28;20882;-70
2021/07/09 11:39:21;;;;;;;57.87;2.40;;;27.60;1.00;;;;;;5072130;28;20539;-70
2021/07/09 11:41:53;;;;;;;58.07;2.70;;;28.60;1.00;;;;;;5072005;28;20445;-69
2021/07/09 11:44:21;;;;;;;61.60;3.10;;;28.90;1.00;;;;;;5071814;28;20557;-69
2021/07/09 11:46:49;;;;;;;57.87;2.57;;;28.50;1.00;;;;;;5072264;28;20546;-69
2021/07/09 11:49:24;;;;;;;57.77;2.60;;;28.50;1.00;;;;;;5072060;28;20456;-69
2021/07/09 11:51:54;;;;;;;58.40;2.60;;;28.90;1.00;;;;;;5071649;28;20478;-70
2021/07/09 11:54:27;;;;;;;58.77;3.00;;;29.30;1.00;;;;;;5071806;28;20912;-69
2021/07/09 11:56:56;;;;;;;57.50;2.40;;;30.20;1.00;;;;;;5071511;28;20451;-69
2021/07/09 11:59:24;;;;;;;57.87;2.60;;;30.40;1.00;;;;;;5071926;28;20475;-69
2021/07/09 12:02:01;;;;;;;57.40;2.30;;;30.60;1.00;;;;;;5070704;28;20447;-68
2021/07/09 12:04:32;;;;;;;57.70;2.43;;;31.10;1.00;;;;;;5071911;28;20514;-69
2021/07/09 12:07:29;;;;;;;58.20;3.00;;;31.10;1.00;;;;;;5071551;28;20455;-70
2021/07/09 12:10:07;;;;;;;57.60;2.30;;;31.20;1.00;;;;;;5071766;28;20447;-69
2021/07/09 12:12:38;;;;;;;57.70;2.77;;;31.10;1.00;;;;;;5070427;28;20482;-69
2021/07/09 12:15:11;;;;;;;58.23;3.33;;;31.20;1.00;;;;;;5070153;28;20463;-69
2021/07/09 12:17:41;;;;;;;58.10;2.50;;;30.50;1.00;;;;;;5070066;28;20447;-70
2021/07/09 12:20:14;;;;;;;58.20;2.70;;;28.90;1.00;;;;;;5070304;28;20534;-70
2021/07/09 12:22:43;;;;;;;58.00;2.50;;;27.00;1.00;;;;;;5070063;28;20446;-69
2021/07/09 12:25:15;;;;;;;58.27;3.10;;;25.80;1.00;;;;;;5070496;28;20471;-70
2021/07/09 12:27:43;;;;;;;58.00;2.40;;;25.50;1.00;;;;;;5070558;28;20457;-70
2021/07/09 12:30:13;;;;;;;58.33;3.00;;;26.30;1.00;;;;;;5071151;28;20797;-70
2021/07/09 12:32:48;;;;;;;58.20;2.70;;;27.40;1.00;;;;;;5071361;28;20922;-71
2021/07/09 12:35:16;;;;;;;57.90;2.50;;;28.40;1.00;;;;;;5071452;28;20469;-69
2021/07/09 12:37:43;;;;;;;57.77;2.53;;;29.20;1.00;;;;;;5071498;28;20478;-70
2021/07/09 12:40:15;;;;;;;57.77;2.40;;;29.10;1.00;;;;;;5071399;28;20826;-70
2021/07/09 12:42:42;;;;;;;58.90;2.70;;;28.00;1.00;;;;;;5070957;28;20449;-70
2021/07/09 12:45:10;;;;;;;57.97;2.47;;;26.70;1.00;;;;;;5071465;28;20475;-71
2021/07/09 12:47:49;;;;;;;57.83;2.50;;;25.60;1.00;;;;;;5071466;28;20447;-71